Time;durP1;ratioP1;P1;durP2;ratioP2;P2;SDS_P1;SDS_P2;PMS_P1;PMS_P2;Temp;Humidity;BMP_temperature;BMP_pressure;BME280_temperature;BME280_humidity;BME280_pressure;Samples;Min_cycle;Max_cycle;Signal;HPM_P1;HPM_P2
2024/05/06 00:01:19;;;;;;;13.98;9.00;;;25.60;99.90;;;;;;5379764;26;19996;-57
2024/05/06 00:03:44;;;;;;;13.15;9.57;;;25.60;99.90;;;;;;5379304;26;19996;-56
2024/05/06 00:06:11;;;;;;;13.32;9.40;;;25.60;99.90;;;;;;5379301;26;20095;-56
2024/05/06 00:08:37;;;;;;;14.63;9.18;;;25.60;99.90;;;;;;5377957;26;20321;-56
2024/05/06 00:11:03;;;;;;;12.98;9.05;;;25.60;99.90;;;;;;5381509;26;20011;-57
2024/05/06 00:13:29;;;;;;;11.95;8.20;;;25.60;99.90;;;;;;5383261;26;19997;-57
2024/05/06 00:15:55;;;;;;;12.65;9.23;;;25.60;99.90;;;;;;5382811;26;20000;-57
2024/05/06 00:18:21;;;;;;;12.55;8.95;;;25.60;99.90;;;;;;5382620;26;20389;-55
2024/05/06 00:20:46;;;;;;;13.38;9.48;;;25.60;99.90;;;;;;5382881;26;20000;-55
2024/05/06 00:23:12;;;;;;;12.65;9.18;;;25.60;99.90;;;;;;5382798;26;20317;-57
2024/05/06 00:25:38;;;;;;;11.00;7.90;;;25.60;99.90;;;;;;5380751;26;19996;-57
2024/05/06 00:28:04;;;;;;;10.70;8.60;;;25.60;99.90;;;;;;5382848;26;19996;-57
2024/05/06 00:30:30;;;;;;;9.98;7.35;;;25.60;99.90;;;;;;5382949;26;20004;-59
2024/05/06 00:32:55;;;;;;;13.85;8.10;;;25.60;99.90;;;;;;5382440;26;20069;-58
2024/05/06 00:35:22;;;;;;;12.40;8.50;;;25.60;99.90;;;;;;5382548;26;20000;-58
2024/05/06 00:37:48;;;;;;;13.60;8.97;;;25.60;99.90;;;;;;5382443;26;20007;-57
2024/05/06 00:40:18;;;;;;;11.90;8.48;;;25.50;99.90;;;;;;5382190;26;20036;-56
2024/05/06 00:42:54;;;;;;;11.93;8.82;;;25.50;99.90;;;;;;5380452;26;20065;-57
2024/05/06 00:45:20;;;;;;;13.23;8.60;;;25.50;99.90;;;;;;5380551;26;20321;-57
2024/05/06 00:47:45;;;;;;;14.98;9.27;;;25.50;99.90;;;;;;5382465;26;20035;-57
2024/05/06 00:50:11;;;;;;;12.35;8.88;;;25.50;99.90;;;;;;5382178;26;20436;-58
2024/05/06 00:52:37;;;;;;;12.63;8.82;;;25.50;99.90;;;;;;5382309;26;20436;-57
2024/05/06 00:55:03;;;;;;;13.40;8.68;;;25.50;99.90;;;;;;5382513;26;19996;-57
2024/05/06 00:57:29;;;;;;;12.15;8.40;;;25.50;99.90;;;;;;5382266;26;20007;-57
2024/05/06 00:59:55;;;;;;;13.50;9.48;;;25.50;99.90;;;;;;5382162;26;19996;-58
2024/05/06 01:02:21;;;;;;;12.95;8.95;;;25.50;99.90;;;;;;5396950;21;20436;-51
2024/05/06 01:04:48;;;;;;;13.68;9.25;;;25.50;99.90;;;;;;5382049;26;20456;-52
2024/05/06 01:07:14;;;;;;;11.93;8.33;;;25.50;99.90;;;;;;5351629;26;20003;-52
2024/05/06 01:09:39;;;;;;;12.10;8.15;;;25.50;99.90;;;;;;5382196;26;20000;-52
2024/05/06 01:12:05;;;;;;;11.10;8.38;;;25.50;99.90;;;;;;5380700;26;20069;-52
2024/05/06 01:14:31;;;;;;;14.40;8.82;;;25.50;99.90;;;;;;5382084;26;20011;-51
2024/05/06 01:16:57;;;;;;;11.82;8.18;;;25.50;99.90;;;;;;5382084;26;20038;-53
2024/05/06 01:19:23;;;;;;;14.63;8.68;;;25.50;99.90;;;;;;5382308;26;20347;-51
2024/05/06 01:21:54;;;;;;;15.13;8.88;;;25.50;99.90;;;;;;5381004;26;20065;-51
2024/05/06 01:24:20;;;;;;;13.93;9.30;;;25.40;99.90;;;;;;5380354;26;20004;-51
2024/05/06 01:26:46;;;;;;;13.65;8.75;;;25.40;99.90;;;;;;5381679;26;19995;-52
2024/05/06 01:29:12;;;;;;;12.70;9.02;;;25.40;99.90;;;;;;5381811;26;20003;-52
2024/05/06 01:31:38;;;;;;;12.20;7.93;;;25.40;99.90;;;;;;5381951;26;19996;-50
2024/05/06 01:34:04;;;;;;;13.95;8.40;;;25.40;99.90;;;;;;5382077;26;20003;-51
2024/05/06 01:36:30;;;;;;;13.20;8.85;;;25.40;99.90;;;;;;5381834;26;19992;-51
2024/05/06 01:38:56;;;;;;;12.65;9.10;;;25.40;99.90;;;;;;5381721;26;19992;-51
2024/05/06 01:41:22;;;;;;;12.82;8.38;;;25.40;99.90;;;;;;5381540;26;19995;-52
2024/05/06 01:43:48;;;;;;;11.35;7.80;;;25.40;99.90;;;;;;5381707;26;20336;-50
2024/05/06 01:46:13;;;;;;;13.00;8.43;;;25.40;99.90;;;;;;5380021;26;20007;-50
2024/05/06 01:48:39;;;;;;;11.48;8.60;;;25.40;99.90;;;;;;5381757;26;19992;-50
2024/05/06 01:51:05;;;;;;;10.38;7.70;;;25.40;99.90;;;;;;5381886;26;19993;-52
2024/05/06 01:53:33;;;;;;;12.80;7.93;;;25.40;99.90;;;;;;5381571;26;20003;-51
2024/05/06 01:55:59;;;;;;;14.05;7.65;;;25.40;99.90;;;;;;5381889;26;20008;-51
2024/05/06 01:58:25;;;;;;;12.65;8.55;;;25.40;99.90;;;;;;5381319;26;19996;-50
2024/05/06 02:00:51;;;;;;;12.95;7.80;;;25.40;99.90;;;;;;5380302;26;20015;-51
2024/05/06 02:03:16;;;;;;;12.02;8.32;;;25.40;99.90;;;;;;5381316;26;19995;-51
2024/05/06 02:05:42;;;;;;;11.75;8.65;;;25.40;99.90;;;;;;5381286;26;20046;-51
2024/05/06 02:08:08;;;;;;;11.13;7.50;;;25.30;99.90;;;;;;5381602;26;20353;-51
2024/05/06 02:10:34;;;;;;;13.70;8.35;;;25.30;99.90;;;;;;5381385;26;19996;-51
2024/05/06 02:12:59;;;;;;;13.15;8.30;;;25.30;99.90;;;;;;5381308;26;20483;-51
2024/05/06 02:15:25;;;;;;;11.38;7.85;;;25.30;99.90;;;;;;5381013;26;20433;-50
2024/05/06 02:17:51;;;;;;;11.45;7.93;;;25.30;99.90;;;;;;5381195;26;19993;-51
2024/05/06 02:20:17;;;;;;;10.30;7.30;;;25.30;99.90;;;;;;5381223;26;20011;-51
2024/05/06 02:22:42;;;;;;;9.98;6.97;;;25.30;99.90;;;;;;5381221;26;20450;-51
2024/05/06 02:25:08;;;;;;;9.00;6.65;;;25.30;99.90;;;;;;5381265;26;20004;-51
2024/05/06 02:27:34;;;;;;;10.23;6.80;;;25.30;99.90;;;;;;5380845;26;19992;-52
2024/05/06 02:30:00;;;;;;;10.43;7.03;;;25.30;99.90;;;;;;5379370;26;20004;-51
2024/05/06 02:32:25;;;;;;;10.80;6.97;;;25.30;99.90;;;;;;5380992;26;20010;-50
2024/05/06 02:34:51;;;;;;;11.15;6.43;;;25.30;99.90;;;;;;5381052;26;20060;-50
2024/05/06 02:37:17;;;;;;;9.77;6.85;;;25.30;99.90;;;;;;5380981;26;20128;-49
2024/05/06 02:39:43;;;;;;;10.73;6.25;;;25.30;99.90;;;;;;5378749;26;20000;-50
2024/05/06 02:42:09;;;;;;;9.98;7.18;;;25.30;99.90;;;;;;5379257;26;20431;-51
2024/05/06 02:44:35;;;;;;;10.18;6.45;;;25.30;99.90;;;;;;5380983;26;20043;-49
2024/05/06 02:47:01;;;;;;;9.13;6.20;;;25.30;99.90;;;;;;5380912;26;20004;-51
2024/05/06 02:49:26;;;;;;;8.68;5.82;;;25.30;99.90;;;;;;5380474;26;20006;-52
2024/05/06 02:51:52;;;;;;;9.07;5.55;;;25.20;99.90;;;;;;5380410;26;20095;-50
2024/05/06 02:54:18;;;;;;;9.07;5.88;;;25.30;99.90;;;;;;5380348;26;19992;-51
2024/05/06 02:56:44;;;;;;;8.00;5.47;;;25.20;99.90;;;;;;5380757;26;19996;-51
2024/05/06 02:59:10;;;;;;;8.50;6.03;;;25.20;99.90;;;;;;5381018;26;20007;-50
2024/05/06 03:01:35;;;;;;;8.25;5.65;;;25.20;99.90;;;;;;5387633;21;20005;-56
2024/05/06 03:04:01;;;;;;;9.32;5.40;;;25.20;99.90;;;;;;5343803;26;20063;-57
2024/05/06 03:06:27;;;;;;;8.00;5.63;;;25.20;99.90;;;;;;5345741;26;20431;-56
2024/05/06 03:08:53;;;;;;;9.13;5.55;;;25.20;99.90;;;;;;5343713;26;20000;-55
2024/05/06 03:11:19;;;;;;;6.97;4.65;;;25.20;99.90;;;;;;5345351;26;20001;-55
2024/05/06 03:13:44;;;;;;;6.90;5.15;;;25.20;99.90;;;;;;5343640;26;19997;-55
2024/05/06 03:16:10;;;;;;;9.07;5.47;;;25.20;99.90;;;;;;5345447;26;20078;-57
2024/05/06 03:18:36;;;;;;;8.60;5.05;;;25.20;99.90;;;;;;5343360;26;20005;-57
2024/05/06 03:21:02;;;;;;;7.50;4.65;;;25.20;99.90;;;;;;5345191;26;20001;-57
2024/05/06 03:23:27;;;;;;;6.32;4.75;;;25.20;99.90;;;;;;5344972;26;20407;-55
2024/05/06 03:25:53;;;;;;;8.60;5.72;;;25.10;99.90;;;;;;5344877;26;20074;-56
2024/05/06 03:28:19;;;;;;;9.52;5.03;;;25.20;99.90;;;;;;5345044;26;20067;-56
2024/05/06 03:30:45;;;;;;;6.00;4.38;;;25.10;99.90;;;;;;5344985;26;20009;-56
2024/05/06 03:33:10;;;;;;;6.32;4.60;;;25.10;99.90;;;;;;5345353;26;19997;-56
2024/05/06 03:35:36;;;;;;;6.60;4.28;;;25.10;99.90;;;;;;5344919;26;20001;-55
2024/05/06 03:38:02;;;;;;;7.43;4.65;;;25.10;99.90;;;;;;5344662;26;19996;-57
2024/05/06 03:40:28;;;;;;;6.47;4.45;;;25.10;99.90;;;;;;5344264;26;20008;-57
2024/05/06 03:42:53;;;;;;;7.45;4.72;;;25.10;99.90;;;;;;5344454;26;20013;-57
2024/05/06 03:45:19;;;;;;;5.53;4.03;;;25.10;99.90;;;;;;5347438;26;20001;-57
2024/05/06 03:47:49;;;;;;;8.45;4.60;;;25.10;99.90;;;;;;5347786;26;20001;-56
2024/05/06 03:50:15;;;;;;;5.97;4.20;;;25.10;99.90;;;;;;5347957;26;20051;-56
2024/05/06 03:52:41;;;;;;;8.30;4.63;;;25.10;99.90;;;;;;5346787;26;20005;-56
2024/05/06 03:55:07;;;;;;;5.63;4.28;;;25.10;99.90;;;;;;5344946;26;20012;-56
2024/05/06 03:57:40;;;;;;;4.90;3.40;;;25.00;99.90;;;;;;5342446;26;19993;-56
2024/05/06 04:00:06;;;;;;;6.57;4.07;;;25.10;99.90;;;;;;5344053;26;20000;-55
2024/05/06 04:02:32;;;;;;;5.07;3.60;;;25.10;99.90;;;;;;5343631;26;19997;-56
2024/05/06 04:04:58;;;;;;;5.10;3.80;;;25.00;99.90;;;;;;5344327;26;20004;-56
2024/05/06 04:07:23;;;;;;;4.63;3.72;;;25.10;99.90;;;;;;5344079;26;20005;-56
2024/05/06 04:09:49;;;;;;;5.65;3.42;;;25.10;99.90;;;;;;5345680;26;20009;-57
2024/05/06 04:12:15;;;;;;;7.13;4.50;;;25.00;99.90;;;;;;5348135;26;20001;-55
2024/05/06 04:14:41;;;;;;;6.00;3.60;;;25.00;99.90;;;;;;5347708;26;19992;-55
2024/05/06 04:17:06;;;;;;;5.30;3.60;;;25.00;99.90;;;;;;5347811;26;20004;-56
2024/05/06 04:19:32;;;;;;;4.57;3.38;;;25.00;99.90;;;;;;5347641;26;19997;-56
2024/05/06 04:21:58;;;;;;;4.30;3.03;;;25.00;99.90;;;;;;5347763;26;20382;-56
2024/05/06 04:27:08;;;;;;;5.70;3.75;;;25.00;99.90;;;;;;5347469;26;20007;-56
2024/05/06 04:29:34;;;;;;;6.25;3.38;;;25.00;99.90;;;;;;5347599;26;20001;-55
2024/05/06 04:32:00;;;;;;;5.28;3.55;;;25.00;99.90;;;;;;5347633;26;19997;-55
2024/05/06 04:34:26;;;;;;;5.00;3.22;;;25.00;99.90;;;;;;5345681;26;20005;-55
2024/05/06 04:36:52;;;;;;;4.47;3.30;;;25.00;99.90;;;;;;5347586;26;20418;-56
2024/05/06 04:39:18;;;;;;;5.50;3.42;;;25.00;99.90;;;;;;5347337;26;20453;-56
2024/05/06 04:41:44;;;;;;;5.18;3.33;;;25.00;99.90;;;;;;5347509;26;20008;-55
2024/05/06 04:44:10;;;;;;;5.75;3.45;;;25.00;99.90;;;;;;5347300;26;20003;-55
2024/05/06 04:46:35;;;;;;;4.45;3.00;;;25.00;99.90;;;;;;5347265;26;20011;-56
2024/05/06 04:49:01;;;;;;;4.85;3.20;;;25.00;99.90;;;;;;5347438;26;20526;-55
2024/05/06 04:51:27;;;;;;;6.10;3.10;;;25.00;99.90;;;;;;5347164;26;20011;-57
2024/05/06 04:53:53;;;;;;;4.60;3.03;;;25.00;99.90;;;;;;5345510;26;20001;-55
2024/05/06 04:56:19;;;;;;;4.68;2.72;;;25.00;99.90;;;;;;5347194;26;20071;-56
2024/05/06 04:58:47;;;;;;;4.88;2.75;;;25.00;99.90;;;;;;5347149;26;19997;-56
2024/05/06 05:01:13;;;;;;;3.67;2.75;;;24.90;99.90;;;;;;5346902;26;19997;-56
2024/05/06 05:03:39;;;;;;;4.13;2.88;;;24.90;99.90;;;;;;5346969;26;20082;-56
2024/05/06 05:06:05;;;;;;;4.05;2.88;;;24.90;99.90;;;;;;5346976;26;20445;-57
2024/05/06 05:08:31;;;;;;;4.85;2.40;;;24.90;99.90;;;;;;5347068;26;20001;-56
2024/05/06 05:10:56;;;;;;;3.30;2.50;;;24.90;99.90;;;;;;5347299;26;20003;-56
2024/05/06 05:13:22;;;;;;;4.47;2.60;;;24.90;99.90;;;;;;5346827;26;20095;-56
2024/05/06 05:15:48;;;;;;;4.88;2.65;;;24.90;99.90;;;;;;5347113;26;20029;-56
2024/05/06 05:18:14;;;;;;;2.88;2.15;;;24.90;99.90;;;;;;5346793;26;20478;-57
2024/05/06 05:20:39;;;;;;;6.68;2.75;;;24.90;99.90;;;;;;5346819;26;20015;-56
2024/05/06 05:23:05;;;;;;;3.78;2.88;;;24.90;99.90;;;;;;5344996;26;20091;-57
2024/05/06 05:25:31;;;;;;;5.10;2.90;;;24.90;99.90;;;;;;5346786;26;20008;-57
2024/05/06 05:27:57;;;;;;;3.65;2.50;;;24.90;99.90;;;;;;5344767;26;20024;-57
2024/05/06 05:30:22;;;;;;;5.50;2.60;;;24.90;99.90;;;;;;5346461;26;20001;-56
2024/05/06 05:32:49;;;;;;;4.10;2.38;;;24.90;99.90;;;;;;5346943;26;20008;-57
2024/05/06 05:35:15;;;;;;;3.85;2.45;;;24.80;99.90;;;;;;5346618;26;20425;-57
2024/05/06 05:37:41;;;;;;;5.68;2.70;;;24.90;99.90;;;;;;5346546;26;19997;-55
2024/05/06 05:40:07;;;;;;;4.03;2.17;;;24.90;99.90;;;;;;5346325;26;20400;-56
2024/05/06 05:42:34;;;;;;;5.68;2.50;;;24.80;99.90;;;;;;5346473;26;19996;-56
2024/05/06 05:45:01;;;;;;;3.80;1.65;;;24.80;99.90;;;;;;5344756;26;20041;-57
2024/05/06 05:47:26;;;;;;;3.15;2.13;;;24.80;99.90;;;;;;5346513;26;20012;-56
2024/05/06 05:49:52;;;;;;;3.00;2.10;;;24.80;99.90;;;;;;5346164;26;19997;-56
2024/05/06 05:52:18;;;;;;;3.42;2.17;;;24.80;99.90;;;;;;5346492;26;20075;-57
2024/05/06 05:54:43;;;;;;;4.13;2.00;;;24.80;99.90;;;;;;5344347;26;20007;-56
2024/05/06 05:57:09;;;;;;;3.15;2.25;;;24.80;99.90;;;;;;5346294;26;20467;-56
2024/05/06 05:59:35;;;;;;;4.85;2.42;;;24.80;99.90;;;;;;5346061;26;20279;-56
2024/05/06 06:02:01;;;;;;;4.40;2.28;;;24.80;99.90;;;;;;5346008;26;20015;-56
2024/05/06 06:04:26;;;;;;;5.28;2.17;;;24.80;99.90;;;;;;5345826;26;20020;-55
2024/05/06 06:06:52;;;;;;;3.53;1.73;;;24.80;99.90;;;;;;5345628;26;20008;-56
2024/05/06 06:09:18;;;;;;;6.60;2.03;;;24.80;99.90;;;;;;5346661;26;20011;-56
2024/05/06 06:11:44;;;;;;;2.58;1.90;;;24.80;99.90;;;;;;5346119;26;20028;-55
2024/05/06 06:14:10;;;;;;;4.07;2.13;;;24.80;99.90;;;;;;5346473;26;20441;-55
2024/05/06 06:16:35;;;;;;;5.53;2.38;;;24.80;99.90;;;;;;5345979;26;20008;-54
2024/05/06 06:19:01;;;;;;;3.17;2.10;;;24.80;99.90;;;;;;5345801;26;20012;-56
2024/05/06 06:21:27;;;;;;;3.60;2.00;;;24.80;99.90;;;;;;5345810;26;20007;-55
2024/05/06 06:23:52;;;;;;;2.25;1.70;;;24.80;99.90;;;;;;5344262;26;20001;-55
2024/05/06 06:26:21;;;;;;;5.38;2.38;;;24.80;99.90;;;;;;5345969;26;19997;-54
2024/05/06 06:28:48;;;;;;;2.85;1.85;;;24.80;99.90;;;;;;5345504;26;20009;-57
2024/05/06 06:31:14;;;;;;;5.28;2.03;;;24.80;99.90;;;;;;5345712;26;19996;-57
2024/05/06 06:33:40;;;;;;;4.53;2.15;;;24.80;99.90;;;;;;5345819;26;20327;-55
2024/05/06 06:36:06;;;;;;;3.25;2.08;;;24.80;99.90;;;;;;5345944;26;20000;-56
2024/05/06 06:38:32;;;;;;;3.78;1.80;;;24.80;99.90;;;;;;5345550;26;20012;-57
2024/05/06 06:40:58;;;;;;;3.72;2.25;;;24.80;99.90;;;;;;5343900;26;20001;-57
2024/05/06 06:43:24;;;;;;;4.68;2.03;;;24.80;99.90;;;;;;5346025;26;20452;-57
2024/05/06 06:45:50;;;;;;;2.47;1.90;;;24.80;99.90;;;;;;5345949;26;20001;-57
2024/05/06 06:48:15;;;;;;;4.78;2.00;;;24.80;99.90;;;;;;5345808;26;19996;-56
2024/05/06 06:50:41;;;;;;;2.28;1.80;;;24.80;99.90;;;;;;5345610;26;20503;-57
2024/05/06 06:53:07;;;;;;;4.72;1.77;;;24.80;99.90;;;;;;5344033;26;19997;-57
2024/05/06 06:55:33;;;;;;;3.95;1.75;;;24.80;99.90;;;;;;5345563;26;20332;-54
2024/05/06 06:57:59;;;;;;;3.40;2.00;;;24.80;99.90;;;;;;5345690;26;20012;-55
2024/05/06 07:00:24;;;;;;;4.30;2.38;;;24.80;99.90;;;;;;5345874;26;20071;-56
2024/05/06 07:02:50;;;;;;;5.00;2.15;;;24.80;99.90;;;;;;5345731;26;19997;-56
2024/05/06 07:05:16;;;;;;;4.25;2.60;;;24.80;99.90;;;;;;5343763;26;20036;-54
2024/05/06 07:07:42;;;;;;;3.55;1.73;;;24.80;99.90;;;;;;5345279;26;20001;-55
2024/05/06 07:10:07;;;;;;;7.72;2.88;;;24.80;99.90;;;;;;5345429;26;20343;-56
2024/05/06 07:12:33;;;;;;;6.10;2.25;;;24.80;99.90;;;;;;5345230;26;20016;-56
2024/05/06 07:14:59;;;;;;;3.13;1.90;;;24.80;99.90;;;;;;5345354;26;20346;-56
2024/05/06 07:17:25;;;;;;;4.50;2.38;;;24.80;99.90;;;;;;5345242;26;19997;-56
2024/05/06 07:19:51;;;;;;;7.47;2.30;;;24.80;99.90;;;;;;5346960;26;20000;-55
2024/05/06 07:22:16;;;;;;;4.18;2.00;;;24.80;99.90;;;;;;5348386;26;20074;-56
2024/05/06 07:24:44;;;;;;;4.90;2.58;;;24.80;99.90;;;;;;5348286;26;20008;-54
2024/05/06 07:27:10;;;;;;;4.25;2.13;;;24.80;99.90;;;;;;5348232;26;20372;-56
2024/05/06 07:29:37;;;;;;;3.50;2.25;;;24.80;99.90;;;;;;5348299;26;20001;-55
2024/05/06 07:32:03;;;;;;;6.68;2.10;;;24.80;99.90;;;;;;5346410;26;20433;-55
2024/05/06 07:34:29;;;;;;;3.33;2.05;;;24.80;99.90;;;;;;5348340;26;20001;-55
2024/05/06 07:36:55;;;;;;;3.70;1.88;;;24.80;99.90;;;;;;5348334;26;20001;-55
2024/05/06 07:39:21;;;;;;;4.60;1.98;;;24.80;99.90;;;;;;5348165;26;20076;-55
2024/05/06 07:41:46;;;;;;;7.35;2.35;;;24.80;99.90;;;;;;5347924;26;20001;-55
2024/05/06 07:44:12;;;;;;;2.75;1.77;;;24.80;99.90;;;;;;5347962;26;19997;-55
2024/05/06 07:46:38;;;;;;;5.05;2.50;;;24.80;99.90;;;;;;5348093;26;20011;-57
2024/05/06 07:49:04;;;;;;;3.78;1.85;;;24.80;99.90;;;;;;5346041;26;20457;-55
2024/05/06 07:51:31;;;;;;;4.35;2.20;;;24.80;99.90;;;;;;5348050;26;20009;-55
2024/05/06 07:53:57;;;;;;;5.53;2.15;;;24.80;99.90;;;;;;5348295;26;20001;-55
2024/05/06 07:56:23;;;;;;;3.85;2.47;;;24.80;99.90;;;;;;5347969;26;20526;-55
2024/05/06 07:58:49;;;;;;;6.63;2.53;;;24.80;99.90;;;;;;5347798;26;20008;-55
2024/05/06 08:01:14;;;;;;;4.03;2.30;;;24.80;99.90;;;;;;5347673;26;20001;-54
2024/05/06 08:03:40;;;;;;;4.55;2.00;;;24.80;99.90;;;;;;5347853;26;20029;-55
2024/05/06 08:06:07;;;;;;;7.35;2.75;;;24.80;99.90;;;;;;5348014;26;20033;-54
2024/05/06 08:08:33;;;;;;;5.78;2.50;;;24.80;99.90;;;;;;5347811;26;20433;-55
2024/05/06 08:10:59;;;;;;;4.63;2.40;;;24.80;99.90;;;;;;5346417;26;20008;-54
2024/05/06 08:13:26;;;;;;;6.82;2.70;;;24.80;99.90;;;;;;5346764;26;20001;-56
2024/05/06 08:15:52;;;;;;;3.67;2.10;;;24.80;99.90;;;;;;5345817;26;20298;-56
2024/05/06 08:18:17;;;;;;;6.32;2.45;;;24.80;99.90;;;;;;5346565;26;20267;-55
2024/05/06 08:20:43;;;;;;;7.88;3.65;;;24.80;99.90;;;;;;5347391;26;20334;-55
2024/05/06 08:23:09;;;;;;;6.68;3.92;;;24.80;99.90;;;;;;5345214;26;20009;-56
2024/05/06 08:25:35;;;;;;;7.90;3.70;;;24.80;99.90;;;;;;5345872;26;20012;-55
2024/05/06 08:28:01;;;;;;;7.13;3.63;;;24.80;99.90;;;;;;5344137;26;20338;-56
2024/05/06 08:30:27;;;;;;;7.18;4.03;;;24.80;99.90;;;;;;5345088;26;20070;-56
2024/05/06 08:32:52;;;;;;;7.63;4.97;;;24.80;99.90;;;;;;5344230;26;19993;-55
2024/05/06 08:35:18;;;;;;;8.32;4.57;;;24.80;99.90;;;;;;5344231;26;20003;-56
2024/05/06 08:37:44;;;;;;;8.27;5.68;;;24.70;99.90;;;;;;5344111;26;19993;-55
2024/05/06 08:40:10;;;;;;;9.50;5.00;;;24.80;99.90;;;;;;5343626;26;20028;-55
2024/05/06 08:42:37;;;;;;;6.72;4.68;;;24.80;99.90;;;;;;5343751;26;20371;-56
2024/05/06 08:45:06;;;;;;;11.45;4.30;;;24.80;99.90;;;;;;5343876;26;19997;-57
2024/05/06 08:47:33;;;;;;;8.13;4.55;;;24.80;99.90;;;;;;5346373;26;20514;-57
2024/05/06 08:50:01;;;;;;;9.13;4.30;;;24.80;99.90;;;;;;5347561;26;20013;-56
2024/05/06 08:52:28;;;;;;;5.90;3.83;;;24.80;99.90;;;;;;5347458;26;20025;-55
2024/05/06 08:54:54;;;;;;;9.45;4.88;;;24.80;99.90;;;;;;5347018;26;20091;-55
2024/05/06 08:57:22;;;;;;;6.63;3.85;;;24.80;99.90;;;;;;5347331;26;20021;-55
2024/05/06 08:59:51;;;;;;;6.43;3.70;;;24.80;99.90;;;;;;5347302;26;20058;-56
2024/05/06 09:02:16;;;;;;;7.68;4.43;;;24.80;99.90;;;;;;5347306;26;20443;-54
2024/05/06 09:04:47;;;;;;;8.00;4.00;;;24.80;99.90;;;;;;5347286;26;19993;-55
2024/05/06 09:07:13;;;;;;;5.07;3.28;;;24.80;99.90;;;;;;5346926;26;20090;-55
2024/05/06 09:09:38;;;;;;;7.07;3.63;;;24.80;99.90;;;;;;5345334;26;20036;-54
2024/05/06 09:12:05;;;;;;;5.72;3.92;;;24.80;99.90;;;;;;5347349;26;20468;-54
2024/05/06 09:14:30;;;;;;;6.93;3.33;;;24.80;99.90;;;;;;5347181;26;20329;-55
2024/05/06 09:16:59;;;;;;;5.00;2.80;;;24.80;99.90;;;;;;5346906;26;19993;-55
2024/05/06 09:19:26;;;;;;;6.45;3.55;;;24.80;99.90;;;;;;5346798;26;20098;-55
2024/05/06 09:21:52;;;;;;;7.47;3.60;;;24.80;99.90;;;;;;5346962;26;20055;-54
2024/05/06 09:24:18;;;;;;;5.22;3.22;;;24.90;99.90;;;;;;5346624;26;19992;-55
2024/05/06 09:26:44;;;;;;;5.95;3.03;;;24.90;99.90;;;;;;5347014;26;20004;-57
2024/05/06 09:29:11;;;;;;;5.15;3.05;;;24.90;99.90;;;;;;5347046;26;20008;-57
2024/05/06 09:31:38;;;;;;;5.03;2.95;;;24.90;99.90;;;;;;5346803;26;20016;-57
2024/05/06 09:34:04;;;;;;;8.10;3.40;;;24.90;99.90;;;;;;5345074;26;19997;-57
2024/05/06 09:36:33;;;;;;;7.72;3.60;;;24.90;99.90;;;;;;5347152;26;20232;-57
2024/05/06 09:39:02;;;;;;;4.85;2.88;;;24.90;99.90;;;;;;5345136;26;20392;-56
2024/05/06 09:41:44;;;;;;;5.18;2.75;;;24.90;99.90;;;;;;5345504;26;20011;-55
2024/05/06 09:44:11;;;;;;;6.55;2.88;;;24.90;99.90;;;;;;5346503;26;20015;-57
2024/05/06 09:46:37;;;;;;;4.03;2.47;;;24.90;99.90;;;;;;5344702;26;20441;-57
2024/05/06 09:49:04;;;;;;;5.60;3.07;;;24.90;99.90;;;;;;5347118;26;20013;-56
2024/05/06 09:51:30;;;;;;;5.18;2.80;;;24.90;99.90;;;;;;5346962;26;20012;-56
2024/05/06 09:53:56;;;;;;;7.28;3.13;;;24.90;99.90;;;;;;5346559;26;20005;-56
2024/05/06 09:56:24;;;;;;;3.97;2.33;;;24.90;99.90;;;;;;5346565;26;20062;-56
2024/05/06 09:58:51;;;;;;;4.65;2.83;;;24.90;99.90;;;;;;5346248;26;20341;-56
2024/05/06 10:01:18;;;;;;;4.82;2.47;;;24.90;99.90;;;;;;5346528;26;20001;-56
2024/05/06 10:03:44;;;;;;;3.67;2.35;;;24.90;99.90;;;;;;5346656;26;20007;-56
2024/05/06 10:06:13;;;;;;;4.13;2.50;;;24.90;99.90;;;;;;5346404;26;20450;-56
2024/05/06 10:08:39;;;;;;;3.80;2.20;;;25.00;99.90;;;;;;5344375;26;19996;-56
2024/05/06 10:11:10;;;;;;;3.90;2.42;;;25.00;99.90;;;;;;5346312;26;20349;-55
2024/05/06 10:13:44;;;;;;;5.43;3.00;;;25.00;99.90;;;;;;5346174;26;20004;-56
2024/05/06 10:16:13;;;;;;;4.25;2.05;;;24.90;99.90;;;;;;5345995;26;20417;-56
2024/05/06 10:18:43;;;;;;;3.75;2.58;;;24.90;99.90;;;;;;5345991;26;20357;-57
2024/05/06 10:21:09;;;;;;;4.20;2.38;;;25.00;99.90;;;;;;5346136;26;19997;-56
2024/05/06 10:23:35;;;;;;;4.72;2.10;;;25.00;99.90;;;;;;5346068;26;19997;-56
2024/05/06 10:26:10;;;;;;;5.43;2.30;;;25.00;99.90;;;;;;5344432;26;20437;-56
2024/05/06 10:28:39;;;;;;;5.35;2.60;;;25.00;99.90;;;;;;5346393;26;20400;-56
2024/05/06 10:31:09;;;;;;;3.45;1.85;;;25.00;99.90;;;;;;5346289;26;20008;-56
2024/05/06 10:33:36;;;;;;;5.28;2.22;;;25.00;99.90;;;;;;5346230;26;20384;-56
2024/05/06 10:36:02;;;;;;;3.70;2.20;;;25.00;99.90;;;;;;5346260;26;20333;-57
2024/05/06 10:38:35;;;;;;;4.00;2.25;;;25.00;99.90;;;;;;5345924;26;20007;-55
2024/05/06 10:41:02;;;;;;;3.33;2.00;;;25.00;99.90;;;;;;5345919;26;20013;-58
2024/05/06 10:43:32;;;;;;;;;;;25.00;99.90;;;;;;5346520;26;20009;-57
2024/05/06 10:45:58;;;;;;;6.03;2.70;;;25.00;99.90;;;;;;5345709;26;19926;-56
2024/05/06 10:48:26;;;;;;;4.82;2.83;;;25.00;99.90;;;;;;5346083;26;20000;-57
2024/05/06 10:50:53;;;;;;;6.53;2.45;;;25.00;99.90;;;;;;5345831;26;20001;-56
2024/05/06 10:53:22;;;;;;;3.80;2.20;;;25.00;99.90;;;;;;5343717;26;20369;-56
2024/05/06 10:55:49;;;;;;;5.38;2.35;;;25.00;99.90;;;;;;5345688;26;20007;-57
2024/05/06 10:58:15;;;;;;;7.97;2.75;;;25.00;99.90;;;;;;5343791;26;20073;-57
2024/05/06 11:00:41;;;;;;;8.13;2.10;;;25.00;99.90;;;;;;5345392;26;20007;-57
2024/05/06 11:03:08;;;;;;;5.70;2.25;;;25.00;99.90;;;;;;5345762;26;20001;-57
2024/05/06 11:05:35;;;;;;;7.63;2.53;;;25.00;99.90;;;;;;5345565;26;20001;-56
2024/05/06 11:08:02;;;;;;;6.18;2.60;;;25.00;99.90;;;;;;5345292;26;20372;-55
2024/05/06 11:10:37;;;;;;;3.53;2.13;;;25.00;99.90;;;;;;5345262;26;19997;-57
2024/05/06 11:13:03;;;;;;;3.95;2.15;;;25.00;99.90;;;;;;5345480;26;20496;-56
2024/05/06 11:15:29;;;;;;;4.20;2.20;;;25.00;99.90;;;;;;5343641;26;19996;-55
2024/05/06 11:17:55;;;;;;;3.63;1.88;;;25.00;99.90;;;;;;5345717;26;20112;-56
2024/05/06 11:20:31;;;;;;;2.90;1.77;;;25.00;99.90;;;;;;5345053;26;20516;-56
2024/05/06 11:22:57;;;;;;;3.42;1.88;;;25.00;99.90;;;;;;5345092;26;20079;-56
2024/05/06 11:25:25;;;;;;;3.95;2.03;;;25.00;99.90;;;;;;5345062;26;20012;-56
2024/05/06 11:27:51;;;;;;;3.83;2.20;;;25.10;99.90;;;;;;5345067;26;19997;-56
2024/05/06 11:30:17;;;;;;;3.58;2.58;;;25.00;99.90;;;;;;5345108;26;20008;-56
2024/05/06 11:32:43;;;;;;;5.85;2.38;;;25.10;99.90;;;;;;5344858;26;19997;-56
2024/05/06 11:35:09;;;;;;;4.93;2.10;;;25.10;99.90;;;;;;5345206;26;20311;-56
2024/05/06 11:37:35;;;;;;;3.28;2.15;;;25.10;99.90;;;;;;5345132;26;20024;-57
2024/05/06 11:40:00;;;;;;;2.97;1.92;;;25.10;99.90;;;;;;5344679;26;19997;-56
2024/05/06 11:42:26;;;;;;;3.80;2.05;;;25.10;99.90;;;;;;5344540;26;20012;-56
2024/05/06 11:44:52;;;;;;;4.47;1.98;;;25.10;99.90;;;;;;5344626;26;20001;-56
2024/05/06 11:47:18;;;;;;;3.60;2.45;;;25.10;99.90;;;;;;5344712;26;20015;-55
2024/05/06 11:49:43;;;;;;;3.85;2.33;;;25.20;99.90;;;;;;5344838;26;20005;-56
2024/05/06 11:52:09;;;;;;;2.47;1.67;;;25.20;99.90;;;;;;5344814;26;20453;-56
2024/05/06 11:54:35;;;;;;;5.50;2.45;;;25.20;99.90;;;;;;5344384;26;20330;-55
2024/05/06 11:57:01;;;;;;;4.53;2.33;;;25.20;99.90;;;;;;5343024;26;19997;-55
2024/05/06 11:59:27;;;;;;;5.15;2.30;;;25.20;99.90;;;;;;5344423;26;20073;-55
2024/05/06 12:01:52;;;;;;;4.80;2.30;;;25.20;99.90;;;;;;5344516;26;20008;-56
2024/05/06 12:04:18;;;;;;;3.20;2.00;;;25.20;99.90;;;;;;5344356;26;20016;-56
2024/05/06 12:06:44;;;;;;;3.60;1.88;;;25.20;99.90;;;;;;5347867;26;20000;-56
2024/05/06 12:09:10;;;;;;;4.10;2.17;;;25.30;99.90;;;;;;5348034;26;20011;-56
2024/05/06 12:11:36;;;;;;;5.47;2.40;;;25.30;99.90;;;;;;5347724;26;20008;-56
2024/05/06 12:14:02;;;;;;;3.58;2.28;;;25.30;99.90;;;;;;5347719;26;19997;-56
2024/05/06 12:16:27;;;;;;;5.38;2.70;;;25.30;99.90;;;;;;5347595;26;19996;-56
2024/05/06 12:18:53;;;;;;;3.65;1.77;;;25.30;99.90;;;;;;5347456;26;19997;-56
2024/05/06 12:21:19;;;;;;;3.47;2.60;;;25.30;99.90;;;;;;5347812;26;19997;-56
2024/05/06 12:23:45;;;;;;;3.80;2.35;;;25.30;99.90;;;;;;5345964;26;20005;-56
2024/05/06 12:26:12;;;;;;;4.07;2.55;;;25.30;99.90;;;;;;5346445;26;19997;-57
2024/05/06 12:28:37;;;;;;;5.93;2.13;;;25.40;99.90;;;;;;5347749;26;20343;-56
2024/05/06 12:31:03;;;;;;;5.30;2.58;;;25.40;99.90;;;;;;5345864;26;20000;-56
2024/05/06 12:33:30;;;;;;;4.03;2.30;;;25.40;99.90;;;;;;5347633;26;19996;-56
2024/05/06 12:35:56;;;;;;;5.78;2.75;;;25.40;99.90;;;;;;5347733;26;20011;-57
2024/05/06 12:38:22;;;;;;;3.88;2.53;;;25.40;99.90;;;;;;5347539;26;20332;-56
2024/05/06 12:40:48;;;;;;;5.32;2.33;;;25.40;99.90;;;;;;5347472;26;20078;-56
2024/05/06 12:43:14;;;;;;;4.93;2.83;;;25.40;99.90;;;;;;5345752;26;20112;-56